Time;durP1;ratioP1;P1;durP2;ratioP2;P2;SDS_P1;SDS_P2;PMS_P1;PMS_P2;Temp;Humidity;BMP_temperature;BMP_pressure;BME280_temperature;BME280_humidity;BME280_pressure;Samples;Min_cycle;Max_cycle;Signal;HPM_P1;HPM_P2
2023/03/03 00:00:45;;;;;;;9.27;4.05;;;4.70;99.90;;;;;;4992474;28;20208;-77
2023/03/03 00:03:16;;;;;;;8.30;3.80;;;4.70;99.90;;;;;;4993464;28;20464;-78
2023/03/03 00:05:42;;;;;;;7.38;3.40;;;4.70;99.90;;;;;;4984840;28;20581;-77
2023/03/03 00:08:09;;;;;;;9.43;4.03;;;4.80;99.90;;;;;;4998789;28;20045;-78
2023/03/03 00:10:35;;;;;;;4.43;3.42;;;4.80;99.90;;;;;;4997728;28;20116;-77
2023/03/03 00:13:01;;;;;;;9.13;4.15;;;4.70;99.90;;;;;;4994994;28;20533;-77
2023/03/03 00:15:27;;;;;;;8.68;3.95;;;4.60;99.90;;;;;;5002350;28;20147;-77
2023/03/03 00:17:54;;;;;;;6.40;3.58;;;4.60;99.90;;;;;;4997994;28;20595;-78
2023/03/03 00:20:38;;;;;;;6.72;3.72;;;4.60;99.90;;;;;;4980036;28;20030;-78
2023/03/03 00:23:28;;;;;;;7.35;3.75;;;4.70;99.90;;;;;;5002021;28;20148;-77
2023/03/03 00:25:55;;;;;;;8.25;3.53;;;4.70;99.90;;;;;;4989460;28;20026;-78
2023/03/03 00:38:17;;;;;;;8.45;4.00;;;4.60;99.90;;;;;;4995830;28;19932;-78
2023/03/03 00:40:43;;;;;;;7.38;3.97;;;4.50;99.90;;;;;;4997715;28;20028;-78
2023/03/03 00:43:27;;;;;;;8.75;3.90;;;4.60;99.90;;;;;;5018055;28;20061;-78
2023/03/03 00:45:57;;;;;;;5.25;4.10;;;4.50;99.90;;;;;;5016513;28;20071;-78
2023/03/03 00:48:30;;;;;;;5.95;4.00;;;4.50;99.90;;;;;;5009530;28;20434;-78
2023/03/03 00:51:00;;;;;;;6.88;3.88;;;4.50;99.90;;;;;;4993034;28;20033;-78
2023/03/03 00:53:29;;;;;;;6.90;3.80;;;4.40;99.90;;;;;;4979570;28;20042;-77
2023/03/03 00:55:55;;;;;;;6.05;3.72;;;4.30;99.90;;;;;;4999770;28;20137;-77
2023/03/03 00:58:22;;;;;;;8.88;3.85;;;4.20;99.90;;;;;;4996528;28;20043;-78
2023/03/03 01:00:53;;;;;;;7.82;4.03;;;4.10;99.90;;;;;;5002029;28;20161;-78
2023/03/03 01:03:23;;;;;;;8.98;4.00;;;3.90;99.90;;;;;;4994675;28;20163;-78
2023/03/03 01:05:51;;;;;;;12.37;4.53;;;3.80;99.90;;;;;;5002729;28;20045;-77
2023/03/03 01:08:16;;;;;;;7.28;4.75;;;3.70;99.90;;;;;;4990411;28;20814;-77
2023/03/03 01:10:52;;;;;;;7.85;4.38;;;3.60;99.90;;;;;;4984508;28;20034;-78
2023/03/03 01:13:19;;;;;;;8.52;5.32;;;3.60;99.90;;;;;;5017090;28;20493;-77
2023/03/03 01:15:45;;;;;;;13.52;5.15;;;3.50;99.90;;;;;;5010038;28;20458;-77
2023/03/03 01:18:11;;;;;;;6.50;4.65;;;3.40;99.90;;;;;;4996070;28;20555;-77
2023/03/03 01:20:38;;;;;;;8.27;4.75;;;3.40;99.90;;;;;;4993954;28;20588;-77
2023/03/03 01:23:04;;;;;;;10.13;5.32;;;3.20;99.90;;;;;;4994400;28;20033;-76
2023/03/03 01:25:29;;;;;;;9.57;5.20;;;3.30;99.90;;;;;;4995643;28;20037;-77
2023/03/03 01:27:56;;;;;;;9.38;4.95;;;3.30;99.90;;;;;;4977541;28;20829;-77
2023/03/03 01:30:22;;;;;;;10.38;4.90;;;3.20;99.90;;;;;;4978938;28;20037;-77
2023/03/03 01:32:47;;;;;;;6.72;4.97;;;3.10;99.90;;;;;;4998781;28;20079;-77
2023/03/03 01:35:13;;;;;;;8.63;4.93;;;3.10;99.90;;;;;;4996331;28;20025;-79
2023/03/03 01:37:39;;;;;;;8.07;4.95;;;3.00;99.90;;;;;;4994770;28;20065;-78
2023/03/03 01:40:07;;;;;;;7.22;4.50;;;2.90;99.90;;;;;;4981192;28;20400;-78
2023/03/03 01:42:33;;;;;;;8.55;4.40;;;2.90;99.90;;;;;;4988415;28;20036;-77
2023/03/03 01:45:23;;;;;;;6.88;4.60;;;2.90;99.90;;;;;;5002440;28;20026;-78
2023/03/03 01:48:05;;;;;;;13.35;5.32;;;2.90;99.90;;;;;;4988121;28;20394;-77
2023/03/03 01:50:40;;;;;;;7.10;4.38;;;2.90;99.90;;;;;;5009193;28;20384;-76
2023/03/03 01:53:12;;;;;;;9.98;4.63;;;2.80;99.90;;;;;;4998360;28;20037;-77
2023/03/03 01:55:41;;;;;;;9.25;4.90;;;2.80;99.90;;;;;;4999195;28;20361;-77
2023/03/03 01:58:12;;;;;;;8.13;4.55;;;2.80;99.90;;;;;;5003441;28;20058;-77
2023/03/03 02:00:41;;;;;;;12.25;5.18;;;2.70;99.90;;;;;;4978753;28;20581;-77
2023/03/03 02:03:07;;;;;;;8.27;4.70;;;2.60;99.90;;;;;;4999189;28;20149;-76
2023/03/03 02:05:35;;;;;;;8.27;4.88;;;2.60;99.90;;;;;;4988837;28;20114;-77
2023/03/03 02:08:01;;;;;;;10.85;4.93;;;2.60;99.90;;;;;;4999724;28;20049;-76
2023/03/03 02:10:28;;;;;;;7.40;4.55;;;2.60;99.90;;;;;;5004558;28;20060;-80
2023/03/03 02:12:58;;;;;;;8.07;4.63;;;2.60;99.90;;;;;;4992155;28;20136;-77
2023/03/03 02:15:25;;;;;;;12.50;5.00;;;2.70;99.90;;;;;;4998357;28;20069;-79
2023/03/03 02:17:53;;;;;;;10.15;4.45;;;2.70;99.90;;;;;;4982058;28;20393;-76
2023/03/03 02:20:37;;;;;;;9.65;4.93;;;2.70;99.90;;;;;;5007007;28;20017;-77
2023/03/03 02:23:06;;;;;;;7.63;4.75;;;2.70;99.90;;;;;;5000766;28;20049;-76
2023/03/03 02:25:50;;;;;;;10.85;5.18;;;2.60;99.90;;;;;;5017234;28;20064;-77
2023/03/03 02:28:16;;;;;;;11.02;5.20;;;2.60;99.90;;;;;;5006382;28;20061;-76
2023/03/03 02:30:42;;;;;;;12.38;5.20;;;2.50;99.90;;;;;;4988081;28;20115;-77
2023/03/03 02:33:08;;;;;;;8.93;5.07;;;2.60;99.90;;;;;;4988592;28;20022;-77
2023/03/03 02:35:37;;;;;;;7.70;5.05;;;2.50;99.90;;;;;;4997505;28;20095;-77
2023/03/03 02:38:28;;;;;;;10.98;5.05;;;2.50;99.90;;;;;;4997750;28;20025;-78
2023/03/03 02:40:53;;;;;;;8.43;4.63;;;2.50;99.90;;;;;;4984812;28;20481;-77
2023/03/03 02:43:23;;;;;;;9.70;4.88;;;2.50;99.90;;;;;;4998043;28;20036;-77
2023/03/03 02:45:48;;;;;;;10.85;5.10;;;2.70;99.90;;;;;;4985913;28;20459;-77
2023/03/03 02:48:14;;;;;;;10.05;5.38;;;2.70;99.90;;;;;;4978999;28;20049;-77
2023/03/03 02:50:40;;;;;;;7.75;4.82;;;2.70;99.90;;;;;;4996124;28;20510;-77
2023/03/03 02:53:05;;;;;;;8.75;5.65;;;2.60;99.90;;;;;;5009501;28;20034;-76
2023/03/03 02:55:31;;;;;;;13.38;5.47;;;2.70;99.90;;;;;;5012162;28;20025;-78
2023/03/03 02:57:56;;;;;;;9.55;5.38;;;2.70;99.90;;;;;;5001803;28;20022;-77
2023/03/03 03:00:22;;;;;;;10.60;5.35;;;2.80;99.90;;;;;;4997739;28;20045;-77
2023/03/03 03:02:48;;;;;;;8.77;5.07;;;2.70;99.90;;;;;;4986856;28;20537;-77
2023/03/03 03:05:14;;;;;;;10.85;5.97;;;2.80;99.90;;;;;;5000937;28;20026;-77
2023/03/03 03:07:39;;;;;;;11.93;5.35;;;2.80;99.90;;;;;;4999063;28;20166;-77
2023/03/03 03:10:05;;;;;;;11.32;5.68;;;2.70;99.90;;;;;;5000400;28;20041;-77
2023/03/03 03:12:31;;;;;;;14.05;6.00;;;2.60;99.90;;;;;;5009246;28;20045;-77
2023/03/03 03:14:57;;;;;;;12.65;5.80;;;2.60;99.90;;;;;;5008066;28;20071;-78
2023/03/03 03:17:22;;;;;;;16.80;6.05;;;2.60;99.90;;;;;;5005667;28;20061;-77
2023/03/03 03:19:48;;;;;;;11.82;5.75;;;2.60;99.90;;;;;;4996138;28;20038;-77
2023/03/03 03:22:14;;;;;;;12.23;5.85;;;2.50;99.90;;;;;;4995748;28;20319;-77
2023/03/03 03:24:39;;;;;;;10.90;6.25;;;2.50;99.90;;;;;;4985385;28;20034;-77
2023/03/03 03:27:05;;;;;;;10.02;5.55;;;2.60;99.90;;;;;;4994675;28;20052;-78
2023/03/03 03:29:31;;;;;;;10.10;5.90;;;2.60;99.90;;;;;;4995910;28;20041;-77
2023/03/03 03:31:56;;;;;;;12.05;5.75;;;2.50;99.90;;;;;;4998099;28;20069;-77
2023/03/03 03:34:22;;;;;;;11.77;5.25;;;2.40;99.90;;;;;;4988399;28;20047;-76
2023/03/03 03:36:47;;;;;;;8.85;5.85;;;2.30;99.90;;;;;;4986673;28;20038;-77
2023/03/03 03:39:13;;;;;;;10.05;5.72;;;2.30;99.90;;;;;;5008980;28;20076;-77
2023/03/03 03:41:40;;;;;;;15.57;6.03;;;2.30;99.90;;;;;;4993800;28;20037;-77
2023/03/03 03:44:05;;;;;;;10.80;5.47;;;2.40;99.90;;;;;;4996629;28;20025;-77
2023/03/03 03:46:31;;;;;;;10.95;5.85;;;2.30;99.90;;;;;;4997670;28;20083;-77
2023/03/03 03:48:56;;;;;;;13.73;6.40;;;2.30;99.90;;;;;;5008605;28;20095;-77
2023/03/03 03:51:22;;;;;;;12.93;6.13;;;2.40;99.90;;;;;;5003642;28;20041;-76
2023/03/03 03:53:47;;;;;;;12.80;6.10;;;2.40;99.90;;;;;;4981674;28;20045;-77
2023/03/03 03:56:13;;;;;;;15.88;6.78;;;2.40;99.90;;;;;;5008799;28;20257;-77
2023/03/03 03:58:40;;;;;;;15.40;6.65;;;2.40;99.90;;;;;;4997243;28;20469;-76
2023/03/03 04:01:07;;;;;;;11.93;6.43;;;2.40;99.90;;;;;;4995853;28;20101;-77
2023/03/03 04:03:33;;;;;;;15.98;6.78;;;2.40;99.90;;;;;;4993310;28;20414;-77
2023/03/03 04:05:58;;;;;;;12.82;7.28;;;2.40;99.90;;;;;;5003286;28;20072;-78
2023/03/03 04:08:24;;;;;;;16.02;7.45;;;2.50;99.90;;;;;;5006704;28;20124;-79
2023/03/03 04:10:50;;;;;;;13.13;7.00;;;2.50;99.90;;;;;;4991073;28;20122;-78
2023/03/03 04:13:15;;;;;;;14.32;6.75;;;2.40;99.90;;;;;;4984788;28;20034;-77
2023/03/03 04:15:41;;;;;;;11.52;6.28;;;2.40;99.90;;;;;;4995586;28;20363;-77
2023/03/03 04:18:07;;;;;;;15.98;6.97;;;2.30;99.90;;;;;;4998508;28;20208;-77
2023/03/03 04:20:32;;;;;;;22.42;7.50;;;2.30;99.90;;;;;;4998855;28;20632;-77
2023/03/03 04:22:58;;;;;;;14.35;7.43;;;2.20;99.90;;;;;;4997350;28;20485;-77
2023/03/03 04:25:24;;;;;;;13.95;7.43;;;2.30;99.90;;;;;;5008198;28;20033;-77
2023/03/03 04:27:51;;;;;;;16.60;7.55;;;2.30;99.90;;;;;;5000370;28;20041;-77
2023/03/03 04:30:17;;;;;;;12.60;7.25;;;2.40;99.90;;;;;;4994582;28;20026;-77
2023/03/03 04:32:43;;;;;;;14.70;7.25;;;2.30;99.90;;;;;;4998830;28;20038;-77
2023/03/03 04:35:09;;;;;;;12.90;7.15;;;2.30;99.90;;;;;;4994391;28;20056;-77
2023/03/03 04:37:36;;;;;;;15.13;7.50;;;2.20;99.90;;;;;;5015932;28;20481;-77
2023/03/03 04:40:03;;;;;;;11.43;6.82;;;2.30;99.90;;;;;;5003335;28;20025;-77
2023/03/03 04:42:29;;;;;;;14.13;7.45;;;2.30;99.90;;;;;;5009087;28;20038;-77
2023/03/03 04:44:55;;;;;;;21.33;7.25;;;2.30;99.90;;;;;;5009314;28;20044;-78
2023/03/03 04:47:20;;;;;;;16.10;7.53;;;2.30;99.90;;;;;;5015594;28;20033;-77
2023/03/03 04:49:46;;;;;;;18.55;7.60;;;2.20;99.90;;;;;;4997546;28;20042;-76
2023/03/03 04:52:11;;;;;;;13.07;6.82;;;2.20;99.90;;;;;;4997703;28;20064;-77
2023/03/03 04:54:37;;;;;;;13.07;6.75;;;2.20;99.90;;;;;;4989992;28;20040;-77
2023/03/03 04:57:03;;;;;;;13.77;6.85;;;2.20;99.90;;;;;;4989485;28;20049;-77
2023/03/03 04:59:28;;;;;;;16.00;7.13;;;2.30;99.90;;;;;;5007386;28;20527;-77
2023/03/03 05:01:54;;;;;;;10.00;6.07;;;2.20;99.90;;;;;;4996261;28;20072;-77
2023/03/03 05:04:19;;;;;;;12.18;6.38;;;2.30;99.90;;;;;;4997771;28;20045;-77
2023/03/03 05:06:45;;;;;;;9.93;6.28;;;2.30;99.90;;;;;;4980443;28;20026;-77
2023/03/03 05:09:11;;;;;;;14.88;6.75;;;2.30;99.90;;;;;;4998755;28;20046;-77
2023/03/03 05:11:36;;;;;;;13.00;6.10;;;2.30;99.90;;;;;;5012765;28;20551;-78
2023/03/03 05:14:02;;;;;;;12.85;5.72;;;2.30;99.90;;;;;;4986337;28;20041;-77
2023/03/03 05:16:28;;;;;;;16.13;6.18;;;2.30;99.90;;;;;;4978994;28;20057;-77
2023/03/03 05:18:54;;;;;;;12.32;6.63;;;2.30;99.90;;;;;;4996510;28;20038;-77
2023/03/03 05:21:20;;;;;;;14.98;6.40;;;2.30;99.90;;;;;;4995681;28;20410;-77
2023/03/03 05:23:46;;;;;;;14.05;6.25;;;2.30;99.90;;;;;;4976876;28;20025;-77
2023/03/03 05:26:11;;;;;;;14.23;6.55;;;2.30;99.90;;;;;;5006993;28;20037;-76
2023/03/03 05:28:37;;;;;;;10.90;6.18;;;2.30;99.90;;;;;;4993907;28;20041;-77
2023/03/03 05:31:02;;;;;;;11.98;5.88;;;2.20;99.90;;;;;;5002057;28;20371;-77
2023/03/03 05:33:28;;;;;;;12.50;5.93;;;2.20;99.90;;;;;;4992704;28;20117;-77
2023/03/03 05:35:55;;;;;;;13.20;6.10;;;2.30;99.90;;;;;;4996244;28;20092;-77
2023/03/03 05:38:21;;;;;;;12.25;5.63;;;2.30;99.90;;;;;;4982221;28;20401;-77
2023/03/03 05:40:47;;;;;;;14.18;6.15;;;2.40;99.90;;;;;;4990354;28;20474;-77
2023/03/03 05:43:12;;;;;;;11.75;6.20;;;2.40;99.90;;;;;;5008367;28;20040;-77
2023/03/03 05:45:38;;;;;;;11.13;5.80;;;2.40;99.90;;;;;;4980832;28;20585;-77
2023/03/03 05:48:04;;;;;;;10.48;6.28;;;2.40;99.90;;;;;;5006858;28;20396;-77
2023/03/03 05:50:30;;;;;;;11.88;5.93;;;2.50;99.90;;;;;;5014833;28;20057;-76
2023/03/03 05:52:55;;;;;;;15.10;6.97;;;2.50;99.90;;;;;;4981822;28;20100;-77
2023/03/03 05:55:21;;;;;;;12.32;5.95;;;2.50;99.90;;;;;;5012338;28;20548;-77
2023/03/03 05:57:47;;;;;;;9.35;6.15;;;2.40;99.90;;;;;;4999880;28;20548;-78
2023/03/03 06:00:13;;;;;;;12.50;5.78;;;2.40;99.90;;;;;;4999287;28;20029;-77
2023/03/03 06:02:40;;;;;;;8.70;5.30;;;2.40;99.90;;;;;;4999594;28;20085;-76
2023/03/03 06:05:06;;;;;;;12.70;5.85;;;2.40;99.90;;;;;;5009109;28;20045;-77
2023/03/03 06:07:32;;;;;;;8.20;5.80;;;2.40;99.90;;;;;;4977528;28;20050;-77
2023/03/03 06:09:58;;;;;;;11.77;6.10;;;2.30;99.90;;;;;;4995296;28;20030;-76
2023/03/03 06:12:23;;;;;;;11.43;5.47;;;2.30;99.90;;;;;;4997833;28;20461;-77
2023/03/03 06:14:49;;;;;;;13.52;5.72;;;2.40;99.90;;;;;;4999497;28;20042;-77
2023/03/03 06:17:14;;;;;;;15.50;5.75;;;2.40;99.90;;;;;;4999690;28;20038;-76
2023/03/03 06:19:40;;;;;;;10.40;6.28;;;2.40;99.90;;;;;;4983628;28;20037;-77
2023/03/03 06:22:07;;;;;;;14.48;6.13;;;2.40;99.90;;;;;;5006651;28;20113;-76
2023/03/03 06:24:33;;;;;;;12.40;5.50;;;2.40;99.90;;;;;;5008164;28;20037;-77
2023/03/03 06:26:59;;;;;;;12.80;5.97;;;2.30;99.90;;;;;;5013616;28;20116;-78
2023/03/03 06:29:25;;;;;;;10.68;6.53;;;2.30;99.90;;;;;;5006027;28;20037;-77
2023/03/03 06:31:51;;;;;;;10.05;6.15;;;2.30;99.90;;;;;;4976898;28;20790;-77
2023/03/03 06:34:17;;;;;;;11.50;5.72;;;2.40;99.90;;;;;;5011296;28;20037;-77
2023/03/03 06:36:42;;;;;;;13.60;5.93;;;2.30;99.90;;;;;;4997261;28;20526;-78
2023/03/03 06:39:08;;;;;;;13.60;5.82;;;2.30;99.90;;;;;;4997750;28;20125;-77
2023/03/03 06:41:33;;;;;;;14.68;5.47;;;2.30;99.90;;;;;;4995374;28;20037;-78
2023/03/03 06:43:59;;;;;;;10.38;5.32;;;2.30;99.90;;;;;;5005489;28;20036;-77
2023/03/03 06:46:26;;;;;;;9.93;5.75;;;2.20;99.90;;;;;;4999313;28;20433;-77
2023/03/03 06:48:52;;;;;;;8.98;5.00;;;2.20;99.90;;;;;;5015590;28;20083;-77
2023/03/03 06:51:30;;;;;;;10.15;4.72;;;2.20;99.90;;;;;;4982052;28;20033;-77
2023/03/03 06:53:57;;;;;;;10.68;5.68;;;2.30;99.90;;;;;;5010623;28;20550;-77
2023/03/03 06:56:24;;;;;;;10.57;5.68;;;2.30;99.90;;;;;;4984593;28;20153;-77
2023/03/03 06:58:57;;;;;;;9.57;5.45;;;2.40;99.90;;;;;;4996202;28;20401;-77
2023/03/03 07:01:22;;;;;;;8.20;4.80;;;2.40;99.90;;;;;;4996653;28;20041;-77
2023/03/03 07:03:48;;;;;;;12.07;5.95;;;2.40;99.90;;;;;;5006560;28;20594;-77
2023/03/03 07:06:26;;;;;;;326.60;117.55;;;2.50;99.90;;;;;;4995542;28;20109;-77
2023/03/03 07:08:53;;;;;;;25.05;11.70;;;2.60;99.90;;;;;;4997214;28;20033;-76
2023/03/03 07:11:22;;;;;;;14.02;6.55;;;2.90;99.90;;;;;;4977529;28;20034;-78
2023/03/03 07:13:50;;;;;;;11.35;5.72;;;3.10;99.90;;;;;;5005193;28;20382;-78
2023/03/03 07:16:17;;;;;;;14.77;5.07;;;3.30;99.90;;;;;;4994921;28;20034;-77
2023/03/03 07:18:52;;;;;;;11.15;4.97;;;3.80;99.90;;;;;;4979087;28;20551;-77
2023/03/03 07:21:19;;;;;;;7.72;4.55;;;4.00;99.90;;;;;;4993954;28;20109;-77
2023/03/03 07:23:48;;;;;;;9.65;4.70;;;4.10;99.90;;;;;;4995213;28;20053;-77
2023/03/03 07:26:41;;;;;;;70.25;27.85;;;4.20;99.90;;;;;;4992897;28;20022;-82
2023/03/03 07:29:40;;;;;;;14.55;6.05;;;4.20;99.90;;;;;;4967809;28;20178;-86
2023/03/03 07:32:23;;;;;;;10.68;5.30;;;4.40;99.90;;;;;;4988138;28;20042;-87
2023/03/03 07:34:51;;;;;;;7.70;4.55;;;4.50;99.90;;;;;;4988925;28;20452;-86
2023/03/03 07:37:19;;;;;;;12.88;4.53;;;4.60;99.90;;;;;;5005483;28;20030;-87
2023/03/03 07:39:46;;;;;;;8.05;3.80;;;4.80;99.90;;;;;;5008789;28;20030;-88
2023/03/03 07:42:22;;;;;;;262.17;95.60;;;5.00;99.90;;;;;;5013743;28;20033;-90
2023/03/03 07:44:54;;;;;;;47.03;18.38;;;5.10;99.90;;;;;;5009333;28;20022;-88
2023/03/03 07:47:34;;;;;;;10.90;5.53;;;5.20;99.90;;;;;;5017324;28;20026;-87
2023/03/03 07:50:12;;;;;;;8.15;4.32;;;5.20;99.90;;;;;;5021225;28;20033;-89
2023/03/03 07:52:47;;;;;;;5.35;3.80;;;5.10;99.90;;;;;;4995130;28;20030;-88
2023/03/03 07:55:34;;;;;;;8.85;4.10;;;5.10;99.90;;;;;;5000308;28;20034;-89
2023/03/03 07:58:15;;;;;;;8.55;3.53;;;5.30;99.90;;;;;;4976711;28;20088;-89
2023/03/03 08:01:12;;;;;;;4.90;3.80;;;5.30;99.90;;;;;;5007135;28;20110;-87
2023/03/03 08:03:37;;;;;;;5.82;2.70;;;5.50;99.90;;;;;;5005736;28;20053;-88
2023/03/03 08:06:34;;;;;;;6.03;3.25;;;5.50;99.90;;;;;;5007839;28;20114;-89
2023/03/03 08:09:30;;;;;;;6.28;3.33;;;5.50;99.90;;;;;;5007850;28;20551;-86
2023/03/03 08:12:39;;;;;;;5.13;3.22;;;5.50;99.90;;;;;;5004976;28;20038;-89
2023/03/03 08:15:18;;;;;;;6.70;3.35;;;5.50;99.90;;;;;;5011811;28;20018;-89
2023/03/03 08:17:45;;;;;;;5.22;3.22;;;5.70;99.90;;;;;;5005616;28;20272;-87
2023/03/03 08:20:32;;;;;;;5.80;3.08;;;5.70;99.90;;;;;;4992339;28;20038;-89
2023/03/03 08:22:58;;;;;;;5.95;2.88;;;5.80;99.90;;;;;;4991484;28;20048;-88
2023/03/03 08:25:24;;;;;;;5.45;2.78;;;5.90;99.90;;;;;;5007925;28;20034;-90
2023/03/03 08:27:49;;;;;;;5.45;2.78;;;6.00;99.90;;;;;;5019774;28;20044;-88
2023/03/03 08:30:16;;;;;;;5.50;2.95;;;6.00;99.90;;;;;;5027060;28;20045;-89
2023/03/03 08:32:42;;;;;;;5.63;2.85;;;6.00;99.00;;;;;;5013610;28;20477;-90
2023/03/03 08:35:08;;;;;;;5.15;2.85;;;6.00;99.90;;;;;;4994649;28;20084;-89
2023/03/03 08:37:33;;;;;;;3.53;2.38;;;6.10;99.90;;;;;;5012983;28;20093;-88
2023/03/03 08:39:59;;;;;;;4.53;2.83;;;6.10;98.10;;;;;;5020568;28;20030;-89
2023/03/03 08:42:24;;;;;;;6.57;2.55;;;6.30;99.90;;;;;;5010906;28;20026;-85
2023/03/03 08:44:50;;;;;;;6.13;2.42;;;6.30;95.50;;;;;;4989379;28;20037;-86
2023/03/03 08:47:16;;;;;;;6.57;2.58;;;6.30;99.90;;;;;;4978687;28;20652;-86
2023/03/03 08:49:41;;;;;;;3.42;2.28;;;6.60;98.40;;;;;;4968777;28;20508;-82
2023/03/03 08:52:07;;;;;;;5.15;2.38;;;6.50;95.40;;;;;;4993005;28;20033;-80
2023/03/03 08:54:32;;;;;;;5.47;2.42;;;6.60;99.90;;;;;;4992462;28;20396;-86
2023/03/03 08:56:58;;;;;;;5.03;2.63;;;6.70;97.00;;;;;;4992665;28;20037;-83
2023/03/03 08:59:24;;;;;;;5.55;2.83;;;6.90;95.20;;;;;;4998214;28;20591;-88
2023/03/03 09:01:49;;;;;;;5.75;2.60;;;7.00;94.70;;;;;;5000290;28;20588;-85
2023/03/03 09:04:15;;;;;;;4.25;2.63;;;7.10;94.30;;;;;;5004328;28;20026;-86
2023/03/03 09:06:40;;;;;;;4.80;2.40;;;7.10;93.20;;;;;;5002540;28;20194;-86
2023/03/03 09:09:06;;;;;;;7.57;2.63;;;7.30;93.40;;;;;;5008317;28;20138;-86
2023/03/03 09:11:32;;;;;;;4.68;2.58;;;7.30;91.50;;;;;;5019876;28;20140;-86
2023/03/03 09:14:16;;;;;;;5.90;2.95;;;7.40;90.10;;;;;;5030047;28;20061;-86
2023/03/03 09:16:50;;;;;;;3.72;2.50;;;7.60;87.90;;;;;;5027535;28;20030;-85
2023/03/03 09:19:29;;;;;;;5.25;2.40;;;7.60;80.90;;;;;;5004457;28;20349;-86
2023/03/03 09:22:00;;;;;;;7.28;2.60;;;8.00;85.30;;;;;;5016499;28;20539;-84
2023/03/03 09:24:30;;;;;;;4.30;2.75;;;8.40;85.90;;;;;;5026898;28;20629;-86
2023/03/03 09:26:57;;;;;;;3.85;2.35;;;8.60;75.70;;;;;;5026038;28;20103;-87
2023/03/03 09:29:36;;;;;;;4.80;2.78;;;8.80;75.80;;;;;;5013707;28;20048;-87
2023/03/03 09:32:16;;;;;;;6.20;2.15;;;8.60;75.80;;;;;;5007788;28;20026;-88
2023/03/03 09:34:42;;;;;;;6.40;2.85;;;8.80;75.10;;;;;;4996613;28;20029;-86
2023/03/03 09:37:25;;;;;;;6.55;2.47;;;8.90;75.90;;;;;;4980612;28;20030;-88
2023/03/03 09:39:56;;;;;;;4.78;2.20;;;9.30;77.30;;;;;;4992706;28;20037;-88
2023/03/03 09:42:46;;;;;;;4.32;2.88;;;9.30;68.30;;;;;;4994516;28;20069;-88
2023/03/03 09:45:31;;;;;;;6.20;3.00;;;9.30;66.80;;;;;;4999521;28;20086;-91
2023/03/03 09:48:15;;;;;;;4.70;2.40;;;9.10;69.10;;;;;;4998021;28;20112;-86
2023/03/03 09:51:20;;;;;;;3.50;2.40;;;9.70;70.50;;;;;;4987162;28;20022;-86
2023/03/03 09:54:00;;;;;;;3.88;2.35;;;9.90;66.20;;;;;;5005597;28;20030;-91
2023/03/03 09:56:37;;;;;;;8.40;2.80;;;10.30;63.90;;;;;;5003525;28;20057;-88
2023/03/03 09:59:18;;;;;;;6.18;3.17;;;10.10;62.60;;;;;;5005300;28;20046;-86
2023/03/03 10:02:06;;;;;;;5.87;2.70;;;10.20;65.50;;;;;;4998359;28;20045;-87
2023/03/03 10:04:40;;;;;;;4.03;2.72;;;10.50;63.80;;;;;;4972813;28;20278;-92
2023/03/03 10:07:09;;;;;;;7.88;2.58;;;10.20;62.10;;;;;;5003487;28;20033;-91
2023/03/03 10:10:00;;;;;;;7.80;3.05;;;10.20;63.70;;;;;;5023915;28;20037;-92
2023/03/03 10:13:02;;;;;;;7.90;2.88;;;10.50;63.50;;;;;;5010829;28;20038;-92
2023/03/03 10:15:34;;;;;;;6.43;2.80;;;10.70;62.50;;;;;;5005566;28;20070;-92
2023/03/03 10:18:23;;;;;;;6.30;2.78;;;10.50;59.30;;;;;;5028349;28;20034;-92
2023/03/03 10:21:04;;;;;;;6.18;2.45;;;11.40;58.20;;;;;;5020604;28;20195;-91
2023/03/03 10:23:49;;;;;;;;;;;12.00;59.80;;;;;;5036634;22;20061;-79
2023/03/03 10:26:42;;;;;;;4.78;2.20;;;12.50;54.30;;;;;;5014032;28;19917;-79
2023/03/03 10:29:53;;;;;;;5.40;2.60;;;13.40;52.10;;;;;;5037267;28;20056;-80
2023/03/03 10:32:34;;;;;;;3.97;2.40;;;13.60;51.60;;;;;;5046428;22;20441;-78
2023/03/03 10:35:14;;;;;;;5.00;2.20;;;13.50;50.20;;;;;;5015951;28;20056;-79
2023/03/03 10:37:58;;;;;;;4.03;2.15;;;12.80;51.80;;;;;;5011724;28;20278;-80
2023/03/03 10:40:51;;;;;;;5.47;2.50;;;12.10;50.70;;;;;;5017606;28;20079;-80
2023/03/03 10:43:42;;;;;;;4.88;2.17;;;11.40;55.10;;;;;;5005654;28;20025;-80
2023/03/03 10:46:34;;;;;;;5.78;2.15;;;10.90;57.80;;;;;;5021261;28;20461;-80
2023/03/03 10:49:09;;;;;;;3.95;2.17;;;10.50;59.10;;;;;;5013932;28;20042;-79
2023/03/03 10:51:43;;;;;;;3.13;2.50;;;10.40;60.70;;;;;;5001344;28;20111;-79
2023/03/03 10:54:29;;;;;;;5.25;2.63;;;10.40;59.80;;;;;;5022388;28;20450;-80
2023/03/03 10:57:01;;;;;;;5.35;2.60;;;10.40;58.70;;;;;;5020641;28;20591;-79
2023/03/03 10:59:30;;;;;;;7.35;2.70;;;10.40;60.40;;;;;;5022744;28;20175;-79
2023/03/03 11:02:07;;;;;;;5.10;3.15;;;9.90;63.00;;;;;;5020515;28;20056;-79
2023/03/03 11:04:51;;;;;;;7.05;3.15;;;10.00;66.10;;;;;;4999552;28;20017;-78
2023/03/03 11:07:37;;;;;;;9.18;3.25;;;9.80;67.30;;;;;;5014102;28;20385;-79
2023/03/03 11:10:39;;;;;;;5.13;2.85;;;9.60;67.80;;;;;;5012017;28;20461;-79
2023/03/03 11:13:34;;;;;;;5.75;3.28;;;9.50;72.40;;;;;;4998692;28;20037;-79
2023/03/03 11:16:05;;;;;;;6.28;2.65;;;9.50;75.20;;;;;;4978786;28;20377;-79
2023/03/03 11:18:40;;;;;;;6.05;2.67;;;9.80;72.10;;;;;;5013997;28;20033;-79
2023/03/03 11:21:06;;;;;;;7.45;2.80;;;9.90;70.50;;;;;;4999596;28;20516;-79
2023/03/03 11:24:10;;;;;;;5.90;3.03;;;10.00;69.80;;;;;;5019349;28;20098;-79
2023/03/03 11:26:41;;;;;;;5.50;2.70;;;9.60;72.70;;;;;;5000188;28;20029;-79
2023/03/03 11:29:21;;;;;;;5.30;2.25;;;9.40;72.60;;;;;;5001097;28;20132;-80
2023/03/03 11:32:17;;;;;;;4.90;2.40;;;9.70;74.50;;;;;;5019474;28;20055;-79
2023/03/03 11:34:48;;;;;;;9.30;2.42;;;9.70;74.20;;;;;;4996707;28;20496;-79
2023/03/03 11:37:25;;;;;;;3.80;2.22;;;10.00;73.90;;;;;;5021522;28;20480;-79
2023/03/03 11:39:54;;;;;;;6.18;2.17;;;10.60;70.60;;;;;;5021182;28;20033;-80
2023/03/03 11:42:41;;;;;;;4.05;2.10;;;10.90;67.10;;;;;;5018527;28;20096;-79
2023/03/03 11:45:14;;;;;;;5.57;2.95;;;10.80;67.40;;;;;;5017285;28;20029;-79
2023/03/03 11:48:03;;;;;;;6.07;2.75;;;10.50;64.60;;;;;;5000584;28;20451;-79
2023/03/03 11:50:44;;;;;;;8.85;3.00;;;10.10;71.70;;;;;;5018218;28;20361;-79
2023/03/03 11:53:23;;;;;;;6.25;2.42;;;9.80;71.20;;;;;;5019035;28;20033;-79
2023/03/03 11:56:09;;;;;;;4.78;3.03;;;9.50;73.10;;;;;;5001603;28;20082;-79
2023/03/03 11:58:44;;;;;;;6.43;2.70;;;9.00;81.90;;;;;;5001771;28;20152;-79
2023/03/03 12:01:40;;;;;;;6.45;2.80;;;9.10;82.70;;;;;;5022856;28;20036;-79
2023/03/03 12:04:19;;;;;;;4.65;2.53;;;8.90;81.60;;;;;;5017455;28;20026;-80
2023/03/03 12:07:05;;;;;;;4.38;2.40;;;9.10;81.20;;;;;;5019708;28;20038;-79
2023/03/03 12:10:12;;;;;;;45.78;17.80;;;9.00;79.60;;;;;;5000990;28;20045;-79
2023/03/03 12:12:45;;;;;;;7.82;2.92;;;9.40;77.10;;;;;;4990882;28;20112;-80
2023/03/03 12:15:46;;;;;;;7.15;2.75;;;9.40;78.10;;;;;;5013925;28;20034;-80
2023/03/03 12:18:36;;;;;;;7.05;2.65;;;9.30;74.90;;;;;;4978685;28;20038;-79
2023/03/03 12:21:38;;;;;;;3.17;2.08;;;9.20;77.60;;;;;;5002733;28;20041;-79
2023/03/03 12:24:37;;;;;;;6.00;2.00;;;9.10;79.70;;;;;;4998686;28;20030;-79
2023/03/03 12:27:24;;;;;;;6.93;1.95;;;8.80;76.60;;;;;;5022344;28;20408;-79
2023/03/03 12:30:02;;;;;;;4.85;1.90;;;8.70;80.60;;;;;;5004879;28;20493;-80
2023/03/03 12:33:09;;;;;;;4.40;1.70;;;8.80;77.50;;;;;;5021288;28;20033;-79
2023/03/03 12:35:42;;;;;;;5.25;1.90;;;8.70;79.90;;;;;;4999803;28;20044;-79
2023/03/03 12:38:13;;;;;;;4.45;1.90;;;8.70;79.40;;;;;;5019623;28;20029;-79
2023/03/03 12:40:45;;;;;;;;;;;8.80;85.60;;;;;;5021935;28;20676;-80
2023/03/03 12:43:27;;;;;;;6.45;2.50;;;8.70;82.00;;;;;;5003311;28;20388;-79
2023/03/03 12:46:20;;;;;;;7.78;2.40;;;8.70;79.90;;;;;;5018616;28;20037;-79
2023/03/03 12:48:47;;;;;;;6.47;2.17;;;8.80;78.40;;;;;;5025845;28;20033;-79
2023/03/03 12:51:37;;;;;;;4.25;2.17;;;8.80;80.10;;;;;;4997363;28;20038;-79
2023/03/03 12:54:24;;;;;;;4.45;1.92;;;8.70;75.00;;;;;;5020080;28;20061;-79
2023/03/03 12:56:59;;;;;;;5.03;1.85;;;8.90;72.30;;;;;;5016373;28;20391;-80
2023/03/03 12:59:42;;;;;;;4.65;2.45;;;9.00;76.30;;;;;;5018578;28;20022;-79
2023/03/03 13:02:47;;;;;;;6.78;1.55;;;9.10;72.10;;;;;;5015243;28;20546;-79
2023/03/03 13:05:37;;;;;;;4.20;2.10;;;9.00;68.20;;;;;;5019959;28;20396;-80
2023/03/03 13:08:11;;;;;;;4.55;1.58;;;9.00;74.00;;;;;;5019482;28;20045;-79
2023/03/03 13:10:56;;;;;;;4.65;2.10;;;8.90;70.70;;;;;;5016777;28;20200;-79
2023/03/03 13:13:25;;;;;;;4.32;1.70;;;8.80;72.30;;;;;;5024946;28;20030;-79
2023/03/03 13:16:03;;;;;;;3.78;1.60;;;8.80;74.90;;;;;;5002412;28;20034;-80
2023/03/03 13:18:38;;;;;;;4.78;1.63;;;8.90;76.90;;;;;;5017625;28;20052;-79
2023/03/03 13:21:06;;;;;;;4.57;1.90;;;8.80;72.20;;;;;;5020597;28;20044;-79
2023/03/03 13:23:39;;;;;;;3.85;1.95;;;8.70;73.80;;;;;;4995600;28;20512;-80
2023/03/03 13:26:28;;;;;;;3.85;1.92;;;8.80;79.20;;;;;;5013924;28;20077;-80
2023/03/03 13:29:16;;;;;;;3.60;2.35;;;8.90;75.80;;;;;;5002964;28;20061;-79
2023/03/03 13:32:20;;;;;;;2.90;1.85;;;9.00;74.00;;;;;;5017104;28;20028;-79